createdAt,value
2019-01-02T00:06:49.622Z,5.2
2019-01-02T00:17:04.510Z,4.8
2019-01-02T00:27:18.440Z,5
2019-01-02T00:37:33.800Z,5
2019-01-02T00:47:47.550Z,4.9
2019-01-02T00:58:02.646Z,4.7
2019-01-02T01:08:18.264Z,5.1
2019-01-02T01:18:32.728Z,5.3
2019-01-02T01:28:46.896Z,5.1
2019-01-02T01:39:01.376Z,4.8
2019-01-02T01:49:16.488Z,5.1
2019-01-02T01:59:31.255Z,4.9
2019-01-02T02:09:44.978Z,4.4
2019-01-02T02:20:00.077Z,4.5
2019-01-02T02:30:13.625Z,4.7
2019-01-02T02:40:27.299Z,4.4
2019-01-02T02:50:42.604Z,4.2
2019-01-02T03:00:56.672Z,4.8
2019-01-02T03:11:11.964Z,5
2019-01-02T03:21:26.315Z,5.1
2019-01-02T03:31:40.435Z,5.2
2019-01-02T03:41:55.873Z,5.2
2019-01-02T03:52:11.347Z,5.2
2019-01-02T04:02:26.798Z,5.2
2019-01-02T04:12:42.128Z,5.4
2019-01-02T04:22:57.123Z,5.6
2019-01-02T04:33:11.780Z,5.8
2019-01-02T04:43:25.899Z,6.1
2019-01-02T04:53:41.029Z,5.9
2019-01-02T05:03:56.429Z,6.1
2019-01-02T05:14:10.719Z,6.1
2019-01-02T05:24:26.154Z,6.1
2019-01-02T05:34:41.244Z,5.9
2019-01-02T05:44:56.450Z,5.8
2019-01-02T05:55:11.278Z,5.7
2019-01-02T06:05:24.940Z,5.6
2019-01-02T06:15:38.834Z,5.3
2019-01-02T06:25:53.099Z,5.1
2019-01-02T06:36:08.119Z,5.1
2019-01-02T06:46:22.242Z,5.1
2019-01-02T21:47:14.729Z,0.3
2019-01-02T21:57:30.005Z,1.1
2019-01-02T22:07:45.138Z,1.3
2019-01-02T22:18:00.058Z,1.9
2019-01-02T22:28:13.902Z,2
2019-01-02T22:38:29.177Z,2
2019-01-02T22:48:43.516Z,1.8
2019-01-02T22:58:57.157Z,1.9
2019-01-02T23:09:10.989Z,1.9
2019-01-02T23:19:25.853Z,2.2
2019-01-02T23:29:40.898Z,2.3
2019-01-02T23:39:56.000Z,2.4
2019-01-02T23:50:10.772Z,2.5
